D/T METAR WX W/DIR W/SPE G/SPE TEMP DEWP
23/05/19 13:50 EGSS 231250Z AUTO 20007KT 160V280 9999 NCD 22/08 Q1016 SSW (200°) 8.1mph 22°C 8°C
23/05/19 13:20 EGSS 231220Z AUTO 23009KT 160V280 9999 NCD 21/08 Q1016 SW (230°) 10.4mph 21°C 8°C
23/05/19 12:50 EGSS 231150Z AUTO 24008KT 200V280 9999 NCD 21/08 Q1016 WSW (240°) 9.2mph 21°C 8°C
23/05/19 12:20 EGSS 231120Z AUTO 23008KT 180V270 9999 NCD 20/07 Q1016 SW (230°) 9.2mph 20°C 7°C
23/05/19 11:50 EGSS 231050Z AUTO 27006KT 230V330 9999 NCD 20/07 Q1017 W (270°) 6.9mph 20°C 7°C
23/05/19 11:20 EGSS 231020Z AUTO 25007KT 210V310 9999 NCD 19/06 Q1017 WSW (250°) 8.1mph 19°C 6°C
23/05/19 10:50 EGSS 230950Z AUTO 25007KT 220V290 9999 NCD 18/07 Q1017 WSW (250°) 8.1mph 18°C 7°C
23/05/19 10:20 EGSS 230920Z AUTO 23007KT 200V260 9999 NCD 17/08 Q1017 SW (230°) 8.1mph 17°C 8°C
23/05/19 09:50 EGSS 230850Z AUTO 22006KT 190V260 9999 NCD 16/09 Q1017 SW (220°) 6.9mph 16°C 9°C
23/05/19 09:20 EGSS 230820Z AUTO 24005KT 200V270 9999 NCD 15/09 Q1017 WSW (240°) 5.8mph 15°C 9°C
23/05/19 08:50 EGSS 230750Z AUTO 24006KT 210V270 9999 NCD 15/08 Q1017 WSW (240°) 6.9mph 15°C 8°C
23/05/19 08:20 EGSS 230720Z AUTO 24004KT 190V270 9999 NCD 14/08 Q1017 WSW (240°) 4.6mph 14°C 8°C
23/05/19 07:50 EGSS 230650Z AUTO 23004KT 190V290 9999 NCD 12/08 Q1017 SW (230°) 4.6mph 12°C 8°C
23/05/19 07:20 EGSS 230620Z AUTO 22004KT 9999 NCD 11/07 Q1017 SW (220°) 4.6mph 11°C 7°C
23/05/19 06:50 EGSS 230550Z AUTO 23004KT 9999 NCD 11/06 Q1017 SW (230°) 4.6mph 11°C 6°C
23/05/19 06:20 EGSS 230520Z AUTO 23003KT 9999 NCD 09/06 Q1017 SW (230°) 3.5mph 9°C 6°C
23/05/19 05:50 EGSS 230450Z AUTO 24004KT 9999 NCD 08/05 Q1017 WSW (240°) 4.6mph 8°C 5°C
23/05/19 05:20 EGSS 230420Z AUTO 24004KT 9999 NCD 08/05 Q1017 WSW (240°) 4.6mph 8°C 5°C
23/05/19 04:50 EGSS 230350Z AUTO VRB03KT 9999 NCD 08/05 Q1017 N (0°) 3.5mph 8°C 5°C
23/05/19 04:20 EGSS 230320Z AUTO 24004KT 9999 NCD 09/05 Q1017 WSW (240°) 4.6mph 9°C 5°C
23/05/19 03:20 EGSS 230220Z AUTO 24005KT 9999 NCD 10/05 Q1017 WSW (240°) 5.8mph 10°C 5°C
23/05/19 02:50 EGSS 230150Z AUTO 24007KT 9999 NCD 10/05 Q1017 WSW (240°) 8.1mph 10°C 5°C
23/05/19 02:20 EGSS 230120Z AUTO 23006KT 9999 NCD 09/05 Q1017 SW (230°) 6.9mph 9°C 5°C
23/05/19 01:50 EGSS 230050Z AUTO 22006KT 9999 NCD 09/05 Q1018 SW (220°) 6.9mph 9°C 5°C
23/05/19 01:20 EGSS 230020Z AUTO 21006KT 9999 NCD 09/05 Q1018 SSW (210°) 6.9mph 9°C 5°C
23/05/19 00:50 EGSS 222350Z AUTO 22006KT 9999 NCD 10/06 Q1018 SW (220°) 6.9mph 10°C 6°C
23/05/19 00:20 EGSS 222320Z AUTO 22006KT 9999 NCD 10/06 Q1018 SW (220°) 6.9mph 10°C 6°C
22/05/19 23:50 EGSS 222250Z AUTO 22006KT 9999 NCD 11/06 Q1018 SW (220°) 6.9mph 11°C 6°C
22/05/19 23:20 EGSS 222220Z AUTO 22006KT 9999 NCD 12/07 Q1018 SW (220°) 6.9mph 12°C 7°C
22/05/19 22:20 EGSS 222120Z AUTO 22007KT 9999 NCD 14/07 Q1018 SW (220°) 8.1mph 14°C 7°C
22/05/19 21:50 EGSS 222050Z AUTO 18005KT 9999 NCD 15/07 Q1018 S (180°) 5.8mph 15°C 7°C
22/05/19 21:20 EGSS 222020Z AUTO 23005KT 9999 NCD 14/07 Q1018 SW (230°) 5.8mph 14°C 7°C
22/05/19 20:50 EGSS 221950Z AUTO 23006KT 9999 NCD 15/07 Q1018 SW (230°) 6.9mph 15°C 7°C
22/05/19 20:20 EGSS 221920Z AUTO 25004KT 9999 NCD 17/07 Q1018 WSW (250°) 4.6mph 17°C 7°C
22/05/19 19:50 EGSS 221850Z AUTO 26004KT 240V300 9999 NCD 18/07 Q1018 W (260°) 4.6mph 18°C 7°C
22/05/19 19:20 EGSS 221820Z AUTO 26005KT 9999 NCD 18/06 Q1018 W (260°) 5.8mph 18°C 6°C
22/05/19 18:50 EGSS 221750Z AUTO 26006KT 220V300 9999 NCD 18/05 Q1018 W (260°) 6.9mph 18°C 5°C
22/05/19 18:20 EGSS 221720Z AUTO 26008KT 9999 NCD 20/05 Q1018 W (260°) 9.2mph 20°C 5°C
22/05/19 17:50 EGSS 221650Z AUTO 22009KT 9999 NCD 19/05 Q1018 SW (220°) 10.4mph 19°C 5°C
22/05/19 17:20 EGSS 221620Z AUTO 25007KT 9999 NCD 19/04 Q1018 WSW (250°) 8.1mph 19°C 4°C
22/05/19 16:50 EGSS 221550Z AUTO 23006KT 190V270 9999 NCD 20/05 Q1018 SW (230°) 6.9mph 20°C 5°C
22/05/19 16:20 EGSS 221520Z AUTO 21007KT 170V240 9999 NCD 20/06 Q1019 SSW (210°) 8.1mph 20°C 6°C
22/05/19 15:50 EGSS 221450Z AUTO 22008KT 9999 NCD 19/05 Q1019 SW (220°) 9.2mph 19°C 5°C
22/05/19 15:20 EGSS 221420Z AUTO 25007KT 190V310 9999 NCD 20/06 Q1019 WSW (250°) 8.1mph 20°C 6°C
22/05/19 14:50 EGSS 221350Z AUTO 23007KT 180V300 9999 NCD 20/06 Q1019 SW (230°) 8.1mph 20°C 6°C
22/05/19 14:20 EGSS 221320Z AUTO 24007KT 190V280 9999 NCD 18/06 Q1020 WSW (240°) 8.1mph 18°C 6°C
22/05/19 13:50 EGSS 221250Z 24007KT 190V290 CAVOK 19/07 Q1020 WSW (240°) 8.1mph 19°C 7°C
22/05/19 13:20 EGSS 221220Z AUTO 20005KT 130V250 9999 NCD 18/06 Q1020 SSW (200°) 5.8mph 18°C 6°C